KOCF/OCF METAR and TAF weather

Enter ICAO airport designator
Station Type Date Time Source
KOCF METAR 2021/03/02 03:03 UTC NOAA

KOCF 020303Z AUTO 31004KT 10SM OVC015 23/22 A3009 RMK AO2 $


Station Type Date Time Source
KOCF Decoded METAR 2021/03/02 03:03 UTC NOAA

Ocala, Ocala International Airport-Jim Taylor Field, FL, United States (KOCF) 29-10N 082-13W
Mar 01, 2021 - 10:03 PM EST / 2021.03.02 0303 UTC
Wind: from the NW (310 degrees) at 5 MPH (4 KT):0
Visibility: 10 mile(s):0
Sky conditions: overcast
Temperature: 73 F (23 C)
Dew Point: 71 F (22 C)
Relative Humidity: 94%
Pressure (altimeter): 30.09 in. Hg (1018 hPa)
ob: KOCF 020303Z AUTO 31004KT 10SM OVC015 23/22 A3009 RMK AO2
cycle: 3

Station Type Date Time Source
KOCF TAF UTC NOAA

Error!

Example: see airport list